Time;durP1;ratioP1;P1;durP2;ratioP2;P2;SDS_P1;SDS_P2;PMS_P1;PMS_P2;Temp;Humidity;BMP_temperature;BMP_pressure;BME280_temperature;BME280_humidity;BME280_pressure;Samples;Min_cycle;Max_cycle;Signal;HPM_P1;HPM_P2
2023/08/14 00:00:11;;;;;;;10.43;7.53;;;;;;;14.74;100.00;101530.84;6191195;23;20019;-58
2023/08/14 00:02:37;;;;;;;9.65;6.70;;;;;;;14.79;100.00;101533.38;6166750;23;20011;-58
2023/08/14 00:05:02;;;;;;;8.15;7.05;;;;;;;14.79;100.00;101526.34;6191155;23;20004;-58
2023/08/14 00:07:28;;;;;;;10.70;7.47;;;;;;;14.73;100.00;101531.72;6190630;23;20099;-58
2023/08/14 00:09:53;;;;;;;8.43;7.30;;;;;;;14.79;100.00;101536.03;6189969;23;20020;-58
2023/08/14 00:12:19;;;;;;;7.32;6.65;;;;;;;14.66;100.00;101533.59;6191792;23;20023;-58
2023/08/14 00:14:44;;;;;;;9.13;7.38;;;;;;;14.63;100.00;101532.78;6191152;23;20004;-58
2023/08/14 00:17:10;;;;;;;13.82;8.20;;;;;;;14.64;100.00;101532.78;6190842;23;20008;-58
2023/08/14 00:19:35;;;;;;;8.55;7.53;;;;;;;14.55;100.00;101530.25;6190364;23;20022;-58
2023/08/14 00:22:01;;;;;;;10.88;7.75;;;;;;;14.50;100.00;101537.38;6216546;23;20169;-58
2023/08/14 00:24:26;;;;;;;9.55;7.88;;;;;;;14.47;100.00;101529.53;6189771;23;20012;-58
2023/08/14 00:26:52;;;;;;;12.05;7.57;;;;;;;14.43;100.00;101522.56;6190674;23;20027;-58
2023/08/14 00:29:17;;;;;;;8.98;7.38;;;;;;;14.41;100.00;101526.97;6190184;23;20016;-58
2023/08/14 00:31:42;;;;;;;9.75;7.30;;;;;;;14.30;100.00;101509.56;6216339;23;20327;-58
2023/08/14 00:34:08;;;;;;;10.63;7.50;;;;;;;14.32;100.00;101514.81;6165506;23;20066;-58
2023/08/14 00:36:33;;;;;;;9.15;7.18;;;;;;;14.31;100.00;101510.44;6191407;23;20008;-58
2023/08/14 00:38:59;;;;;;;11.98;7.72;;;;;;;14.30;100.00;101508.72;6165619;23;20012;-58
2023/08/14 00:41:25;;;;;;;10.23;8.18;;;;;;;14.24;100.00;101511.44;6191067;23;20039;-58
2023/08/14 00:43:52;;;;;;;9.85;8.40;;;;;;;14.21;100.00;101517.66;6215613;23;20380;-58
2023/08/14 00:46:18;;;;;;;14.73;9.40;;;;;;;14.24;100.00;101514.94;6190918;23;20015;-58
2023/08/14 00:48:44;;;;;;;9.90;8.95;;;;;;;14.21;100.00;101512.38;6165614;23;20040;-58
2023/08/14 00:51:10;;;;;;;10.23;8.82;;;;;;;14.29;100.00;101512.22;6191888;23;20012;-58
2023/08/14 00:53:35;;;;;;;9.65;7.45;;;;;;;14.39;100.00;101511.19;6191062;23;20107;-58
2023/08/14 00:56:03;;;;;;;10.85;7.75;;;;;;;14.43;100.00;101512.88;6215088;23;20016;-58
2023/08/14 00:58:29;;;;;;;12.35;7.53;;;;;;;14.40;100.00;101520.84;6191272;23;20008;-58
2023/08/14 01:00:59;;;;;;;9.05;8.13;;;;;;;14.35;100.00;101512.13;6191388;23;20078;-58
2023/08/14 01:03:25;;;;;;;12.95;7.85;;;;;;;14.32;100.00;101509.53;6191452;23;20103;-58
2023/08/14 01:05:50;;;;;;;11.35;9.82;;;;;;;14.34;100.00;101513.91;6216165;23;20418;-58
2023/08/14 01:08:16;;;;;;;12.93;9.00;;;;;;;14.31;100.00;101507.78;6190209;23;20026;-58
2023/08/14 01:10:59;;;;;;;10.20;8.05;;;;;;;14.28;100.00;101502.56;6191081;23;20330;-58
2023/08/14 01:13:35;;;;;;;12.15;8.18;;;;;;;14.26;100.00;101505.25;6216743;23;20030;-58
2023/08/14 01:16:06;;;;;;;12.00;7.85;;;;;;;14.37;100.00;101502.44;6215278;23;20329;-58
2023/08/14 01:18:35;;;;;;;11.00;7.75;;;;;;;14.45;100.00;101497.03;6215441;23;20094;-58
2023/08/14 01:21:12;;;;;;;8.77;6.80;;;;;;;14.46;100.00;101496.13;6216824;23;20071;-58
2023/08/14 01:23:42;;;;;;;9.00;6.53;;;;;;;14.32;100.00;101496.38;6214058;23;20004;-58
2023/08/14 01:26:08;;;;;;;11.88;7.88;;;;;;;14.32;100.00;101505.16;6215569;23;20012;-58
2023/08/14 01:28:34;;;;;;;7.28;6.25;;;;;;;14.37;100.00;101489.25;6190685;23;20035;-58
2023/08/14 01:31:00;;;;;;;8.63;6.50;;;;;;;14.44;100.00;101497.91;6216351;23;20156;-58
2023/08/14 01:33:25;;;;;;;8.18;5.53;;;;;;;14.50;100.00;101484.63;6189207;23;20415;-58
2023/08/14 01:36:13;;;;;;;8.13;5.93;;;;;;;14.36;100.00;101485.72;6191507;23;20008;-58
2023/08/14 01:39:05;;;;;;;7.32;6.47;;;;;;;14.28;100.00;101478.84;6216293;23;20004;-58
2023/08/14 01:41:48;;;;;;;9.48;7.55;;;;;;;14.21;100.00;101481.59;6215675;23;20000;-58
2023/08/14 01:44:21;;;;;;;11.88;8.48;;;;;;;14.14;100.00;101476.47;6216383;23;20019;-58
2023/08/14 01:46:47;;;;;;;10.02;8.52;;;;;;;14.19;100.00;101479.88;6218312;23;20008;-58
2023/08/14 01:49:16;;;;;;;9.43;8.45;;;;;;;14.13;100.00;101475.56;6191712;23;20022;-58
2023/08/14 01:51:42;;;;;;;11.05;8.52;;;;;;;14.12;100.00;101463.31;6218319;23;20060;-58
2023/08/14 01:54:09;;;;;;;10.45;8.63;;;;;;;14.14;100.00;101474.69;6193253;23;20363;-58
2023/08/14 01:56:34;;;;;;;11.50;8.63;;;;;;;14.12;100.00;101460.69;6191925;23;20020;-58
2023/08/14 01:59:00;;;;;;;8.68;7.18;;;;;;;14.10;100.00;101454.53;6192523;23;20039;-58
2023/08/14 02:01:25;;;;;;;11.52;8.32;;;;;;;14.10;100.00;101437.88;6192873;23;20632;-58
2023/08/14 02:03:51;;;;;;;11.43;9.07;;;;;;;14.08;100.00;101451.09;6192077;23;20346;-58
2023/08/14 02:06:16;;;;;;;10.30;8.57;;;;;;;14.18;100.00;101444.75;6192016;23;20326;-58
2023/08/14 02:08:42;;;;;;;9.68;8.05;;;;;;;14.17;100.00;101453.53;6218350;23;20012;-58
2023/08/14 02:11:08;;;;;;;11.20;7.70;;;;;;;14.28;100.00;101452.50;6167162;23;20397;-58
2023/08/14 02:13:34;;;;;;;11.52;8.73;;;;;;;14.26;100.00;101449.88;6192561;23;20023;-58
2023/08/14 02:16:00;;;;;;;11.98;9.25;;;;;;;14.23;100.00;101441.19;6192418;23;20423;-58
2023/08/14 02:18:25;;;;;;;8.52;7.60;;;;;;;14.23;100.00;101436.75;6191941;23;20066;-58
2023/08/14 02:20:52;;;;;;;9.85;7.65;;;;;;;14.28;100.00;101428.75;6192792;23;20070;-58
2023/08/14 02:23:18;;;;;;;10.85;7.93;;;;;;;14.26;100.00;101427.94;6192207;23;20016;-58
2023/08/14 02:25:46;;;;;;;8.52;6.93;;;;;;;14.24;100.00;101427.06;6192190;23;20016;-58
2023/08/14 02:28:11;;;;;;;8.00;6.28;;;;;;;14.15;100.00;101429.00;6217412;23;20423;-58
2023/08/14 02:30:38;;;;;;;8.55;6.15;;;;;;;14.06;100.00;101428.28;6192703;23;20077;-58
2023/08/14 02:33:04;;;;;;;13.85;7.57;;;;;;;13.97;100.00;101424.88;6191508;22;20133;-58
2023/08/14 02:35:29;;;;;;;10.90;7.55;;;;;;;13.93;100.00;101431.09;6192646;23;20011;-58
2023/08/14 02:37:55;;;;;;;9.32;7.47;;;;;;;13.90;100.00;101427.66;6193104;23;20015;-58
2023/08/14 02:40:20;;;;;;;10.15;7.70;;;;;;;13.83;100.00;101419.88;6217011;23;20092;-58
2023/08/14 02:42:46;;;;;;;12.02;7.57;;;;;;;13.92;100.00;101416.22;6216959;23;20087;-58
2023/08/14 02:45:11;;;;;;;10.18;7.40;;;;;;;13.88;100.00;101429.44;6193064;23;20012;-58
2023/08/14 02:47:37;;;;;;;10.30;8.10;;;;;;;13.82;100.00;101423.38;6218140;23;20004;-58
2023/08/14 02:50:02;;;;;;;11.98;8.75;;;;;;;13.79;100.00;101427.81;6192331;23;20039;-58
2023/08/14 02:52:28;;;;;;;9.27;6.95;;;;;;;13.62;100.00;101428.06;6192776;23;20039;-58
2023/08/14 02:54:53;;;;;;;10.93;8.45;;;;;;;13.58;100.00;101426.41;6191050;23;20054;-58
2023/08/14 02:57:19;;;;;;;15.15;9.60;;;;;;;13.58;100.00;101431.69;6192222;23;20023;-58
2023/08/14 02:59:44;;;;;;;11.63;9.10;;;;;;;13.52;100.00;101430.00;6192240;23;20012;-58
2023/08/14 03:02:09;;;;;;;13.32;9.60;;;;;;;13.47;100.00;101434.44;6191458;23;20478;-58
2023/08/14 03:04:35;;;;;;;11.05;8.63;;;;;;;13.41;100.00;101429.28;6192290;23;20409;-58
2023/08/14 03:07:01;;;;;;;13.38;10.68;;;;;;;13.52;100.00;101433.50;6191399;23;20016;-58
2023/08/14 03:09:26;;;;;;;15.82;10.82;;;;;;;13.54;100.00;101437.88;6166754;23;20012;-58
2023/08/14 03:11:52;;;;;;;16.73;12.00;;;;;;;13.61;100.00;101437.75;6192314;23;20022;-58
2023/08/14 03:14:17;;;;;;;13.48;11.73;;;;;;;13.61;100.00;101436.91;6167917;23;20008;-58
2023/08/14 03:16:43;;;;;;;17.48;12.30;;;;;;;13.60;100.00;101435.16;6191806;23;20009;-58
2023/08/14 03:19:08;;;;;;;15.18;10.52;;;;;;;13.50;100.00;101429.13;6167433;23;20107;-58
2023/08/14 03:21:33;;;;;;;13.05;11.70;;;;;;;13.50;100.00;101430.03;6167637;23;20016;-58
2023/08/14 03:23:59;;;;;;;15.20;13.60;;;;;;;13.49;100.00;101428.28;6167992;23;20023;-58
2023/08/14 03:26:24;;;;;;;19.67;14.30;;;;;;;13.54;100.00;101429.97;6166502;23;20346;-58
2023/08/14 03:28:50;;;;;;;23.02;16.30;;;;;;;13.59;100.00;101433.41;6167398;23;20320;-58
2023/08/14 03:31:15;;;;;;;23.73;17.50;;;;;;;13.74;100.00;101429.69;6191228;23;20362;-58
2023/08/14 03:33:41;;;;;;;19.48;17.27;;;;;;;13.72;100.00;101421.81;6215825;23;20012;-58
2023/08/14 03:36:06;;;;;;;17.30;15.32;;;;;;;13.71;100.00;101422.69;6166211;23;20090;-58
2023/08/14 03:38:32;;;;;;;17.17;15.07;;;;;;;13.81;100.00;101421.63;6191145;23;20023;-58
2023/08/14 03:40:58;;;;;;;21.38;15.90;;;;;;;13.83;100.00;101419.88;6165891;23;20379;-58
2023/08/14 03:43:23;;;;;;;18.00;15.48;;;;;;;13.78;100.00;101412.94;6192276;23;20004;-58
2023/08/14 03:45:49;;;;;;;17.60;15.55;;;;;;;13.80;100.00;101417.25;6166738;23;20395;-58
2023/08/14 03:48:15;;;;;;;20.02;17.17;;;;;;;13.82;100.00;101417.22;6243494;23;20028;-58
2023/08/14 03:50:45;;;;;;;18.50;16.60;;;;;;;13.86;100.00;101425.09;6167482;23;20019;-58
2023/08/14 03:53:10;;;;;;;18.77;16.77;;;;;;;13.85;100.00;101423.34;6216700;23;20073;-58
2023/08/14 03:55:36;;;;;;;17.25;15.35;;;;;;;13.82;100.00;101426.03;6165898;23;20028;-58
2023/08/14 03:58:01;;;;;;;15.40;13.63;;;;;;;13.80;100.00;101429.56;6191925;23;20027;-58
2023/08/14 04:00:27;;;;;;;15.60;13.70;;;;;;;13.79;100.00;101428.72;6167717;23;20027;-58
2023/08/14 04:02:52;;;;;;;15.13;13.25;;;;;;;13.86;100.00;101427.72;6166138;22;20091;-58
2023/08/14 04:05:18;;;;;;;18.20;12.88;;;;;;;13.86;100.00;101422.44;6192201;23;20015;-58
2023/08/14 04:07:43;;;;;;;14.23;11.95;;;;;;;13.81;100.00;101421.63;6191017;23;20019;-58
2023/08/14 04:10:09;;;;;;;311.52;25.40;;;;;;;13.58;100.00;101426.41;6166200;23;20015;-58
2023/08/14 04:12:34;;;;;;;201.85;20.02;;;;;;;13.61;100.00;101427.22;6192165;23;20016;-58
2023/08/14 04:15:14;;;;;;;20.95;13.27;;;;;;;13.55;100.00;101429.06;6190597;23;20426;-58
2023/08/14 04:17:39;;;;;;;12.65;11.35;;;;;;;13.47;100.00;101419.50;6191795;23;20338;-58
2023/08/14 04:20:05;;;;;;;15.50;13.45;;;;;;;13.49;100.00;101422.16;6191809;23;20091;-58
2023/08/14 04:22:30;;;;;;;16.05;13.40;;;;;;;13.41;100.00;101408.22;6192108;23;20020;-58
2023/08/14 04:24:56;;;;;;;22.70;13.68;;;;;;;13.46;100.00;101409.91;6191033;23;20438;-58
2023/08/14 04:28:03;;;;;;;12.98;11.27;;;;;;;13.46;100.00;101406.38;6188761;23;20027;-58
2023/08/14 04:30:17;;;;;;;13.05;10.75;;;;;;;13.45;100.00;101405.50;6233104;23;20018;-58
2023/08/14 04:32:43;;;;;;;11.52;10.52;;;;;;;13.52;100.00;101399.25;6188531;23;20036;-58
2023/08/14 04:35:11;;;;;;;12.93;11.55;;;;;;;13.60;100.00;101399.13;6191585;23;20004;-58
2023/08/14 04:37:37;;;;;;;12.05;10.85;;;;;;;13.63;100.00;101399.13;6191208;23;20004;-58
2023/08/14 04:40:04;;;;;;;15.20;13.15;;;;;;;13.58;100.00;101403.56;6190368;23;20023;-58
2023/08/14 04:42:30;;;;;;;12.35;11.15;;;;;;;13.54;100.00;101401.00;6216451;23;20003;-58
2023/08/14 04:44:56;;;;;;;12.45;11.25;;;;;;;13.45;100.00;101397.63;6165718;23;20410;-59
2023/08/14 04:47:21;;;;;;;13.43;12.10;;;;;;;13.46;100.00;101390.56;6191655;23;20107;-58
2023/08/14 04:49:47;;;;;;;15.70;12.88;;;;;;;13.50;100.00;101384.38;6190774;23;20342;-58
2023/08/14 04:52:12;;;;;;;13.43;11.98;;;;;;;13.55;100.00;101381.66;6191167;23;20103;-58
2023/08/14 04:54:37;;;;;;;13.07;11.82;;;;;;;13.76;100.00;101383.09;6188793;23;20012;-58
2023/08/14 04:57:03;;;;;;;12.73;11.23;;;;;;;13.76;100.00;101383.97;6166268;23;20008;-58
2023/08/14 04:59:29;;;;;;;14.10;12.80;;;;;;;13.88;100.00;101382.00;6165382;23;20043;-58
2023/08/14 05:01:54;;;;;;;30.40;13.13;;;;;;;14.36;100.00;101379.41;6215456;23;20426;-58
2023/08/14 05:04:19;;;;;;;13.40;11.95;;;;;;;14.80;100.00;101377.69;6166086;23;20008;-58
2023/08/14 05:06:45;;;;;;;15.57;11.43;;;;;;;15.24;100.00;101381.16;6166285;23;20012;-58
2023/08/14 05:09:10;;;;;;;12.00;10.63;;;;;;;15.58;100.00;101377.69;6190876;23;20449;-58
2023/08/14 05:11:36;;;;;;;11.75;10.43;;;;;;;16.09;100.00;101381.75;6166128;23;20446;-58
2023/08/14 05:14:01;;;;;;;10.20;9.02;;;;;;;16.57;100.00;101376.97;6216604;23;20015;-58
2023/08/14 05:16:27;;;;;;;11.40;8.80;;;;;;;16.75;99.45;101370.25;6217020;23;20067;-58
2023/08/14 05:18:52;;;;;;;10.18;9.27;;;;;;;17.72;95.50;101361.13;6192083;23;20019;-58
2023/08/14 05:21:18;;;;;;;12.48;8.73;;;;;;;18.07;93.25;101359.06;6193981;23;20116;-58
2023/08/14 05:23:43;;;;;;;9.63;8.60;;;;;;;18.43;90.30;101364.88;6192954;23;20343;-58
2023/08/14 05:26:08;;;;;;;12.73;8.60;;;;;;;18.66;87.57;101371.09;6218093;23;20023;-58
2023/08/14 05:28:34;;;;;;;14.35;9.85;;;;;;;18.82;86.39;101368.72;6193204;23;20119;-58
2023/08/14 05:30:59;;;;;;;12.35;9.30;;;;;;;18.82;86.10;101369.63;6192964;23;20330;-58
2023/08/14 05:33:25;;;;;;;10.40;9.40;;;;;;;18.45;86.70;101378.09;6192313;23;20062;-58
2023/08/14 05:35:50;;;;;;;13.63;11.32;;;;;;;17.99;87.68;101378.78;6193728;23;20015;-58
2023/08/14 05:38:16;;;;;;;15.43;10.20;;;;;;;17.64;89.76;101375.50;6169128;23;20034;-58
2023/08/14 05:40:41;;;;;;;14.95;11.02;;;;;;;17.34;92.21;101387.94;6191727;23;20107;-58
2023/08/14 05:43:07;;;;;;;15.02;11.23;;;;;;;17.15;93.87;101387.63;6168714;22;20008;-58
2023/08/14 05:45:38;;;;;;;14.38;11.30;;;;;;;16.88;95.24;101384.03;6193619;23;20429;-58
2023/08/14 05:48:06;;;;;;;13.23;11.82;;;;;;;16.86;96.22;101376.09;6192391;23;20012;-58
2023/08/14 05:50:32;;;;;;;16.42;11.88;;;;;;;16.91;97.40;101387.47;6218141;23;20043;-58
2023/08/14 05:53:00;;;;;;;12.90;11.13;;;;;;;17.15;97.34;101395.56;6218138;22;20004;-58
2023/08/14 05:55:26;;;;;;;15.10;12.50;;;;;;;17.25;95.59;101402.31;6217369;23;20030;-58
2023/08/14 05:57:52;;;;;;;21.33;12.77;;;;;;;17.09;95.81;101401.06;6192621;23;20481;-58
2023/08/14 06:00:18;;;;;;;13.30;11.85;;;;;;;16.96;96.81;101396.13;6216970;23;20038;-58
2023/08/14 06:02:44;;;;;;;15.10;13.30;;;;;;;16.74;98.01;101395.00;6217497;23;20004;-58
2023/08/14 06:05:10;;;;;;;15.50;13.05;;;;;;;16.66;99.35;101402.28;6193245;23;20387;-58
2023/08/14 06:07:36;;;;;;;14.98;13.60;;;;;;;16.68;99.80;101405.75;6168513;23;20319;-58
2023/08/14 06:10:04;;;;;;;15.35;13.75;;;;;;;16.76;99.62;101409.03;6217069;23;20008;-58
2023/08/14 06:12:30;;;;;;;16.40;14.02;;;;;;;16.72;99.93;101412.69;6217849;23;20080;-58
2023/08/14 06:14:55;;;;;;;15.50;14.00;;;;;;;16.59;100.00;101415.69;6192739;23;20019;-58
2023/08/14 06:17:21;;;;;;;15.65;13.85;;;;;;;16.58;100.00;101416.59;6192371;23;20039;-58
2023/08/14 06:19:46;;;;;;;15.30;13.85;;;;;;;16.50;100.00;101413.28;6217704;23;20008;-58
2023/08/14 06:22:12;;;;;;;15.85;14.38;;;;;;;16.43;100.00;101425.84;6193357;23;20012;-58
2023/08/14 06:24:37;;;;;;;16.35;14.63;;;;;;;16.42;100.00;101428.50;6191742;23;20775;-58
2023/08/14 06:27:03;;;;;;;17.05;15.25;;;;;;;16.32;100.00;101419.06;6167572;23;20434;-58
2023/08/14 06:29:30;;;;;;;16.90;15.27;;;;;;;16.31;100.00;101410.28;6168780;23;20050;-58
2023/08/14 06:31:57;;;;;;;17.10;15.27;;;;;;;16.23;100.00;101410.50;6168133;23;20115;-58
2023/08/14 06:34:23;;;;;;;18.60;16.13;;;;;;;16.27;100.00;101401.53;6166637;23;20405;-58
2023/08/14 06:36:48;;;;;;;19.13;17.17;;;;;;;16.53;100.00;101402.63;6168625;23;20012;-58
2023/08/14 06:39:14;;;;;;;20.27;18.08;;;;;;;17.05;100.00;101400.31;6192522;23;20103;-59
2023/08/14 06:41:39;;;;;;;19.33;17.35;;;;;;;18.14;100.00;101387.13;6191825;23;20104;-58
2023/08/14 06:44:08;;;;;;;23.88;16.45;;;;;;;19.01;96.96;101401.69;6167663;23;20442;-61
2023/08/14 06:46:34;;;;;;;18.37;15.70;;;;;;;19.46;93.63;101401.72;6217874;23;20008;-62
2023/08/14 06:48:59;;;;;;;18.52;14.55;;;;;;;19.83;91.27;101401.13;6167252;23;20452;-62
2023/08/14 06:51:25;;;;;;;18.63;13.98;;;;;;;19.74;88.42;101391.69;6218258;23;20349;-61
2023/08/14 06:53:50;;;;;;;19.92;13.18;;;;;;;19.44;88.70;101391.16;6166849;23;20008;-61
2023/08/14 06:56:16;;;;;;;17.00;12.95;;;;;;;19.29;90.33;101394.44;6188453;23;20016;-62
2023/08/14 06:58:41;;;;;;;16.90;13.20;;;;;;;19.08;90.91;101402.31;6167144;23;20024;-62
2023/08/14 07:01:07;;;;;;;15.40;12.95;;;;;;;18.98;91.13;101395.63;6167550;23;20074;-61
2023/08/14 07:03:33;;;;;;;15.60;13.30;;;;;;;19.33;91.71;101396.91;6166716;23;20016;-62
2023/08/14 07:05:58;;;;;;;14.70;12.88;;;;;;;20.28;90.18;101393.88;6243122;23;20086;-58
2023/08/14 07:08:24;;;;;;;15.40;11.82;;;;;;;20.93;82.78;101397.22;6193099;23;20373;-58
2023/08/14 07:10:50;;;;;;;12.52;11.05;;;;;;;21.83;79.16;101384.94;6217023;23;20008;-58
2023/08/14 07:13:15;;;;;;;13.90;10.93;;;;;;;22.13;75.47;101393.16;6243396;22;20038;-58
2023/08/14 07:15:47;;;;;;;12.88;10.20;;;;;;;21.88;75.67;101387.38;6216440;23;20004;-61
2023/08/14 07:18:18;;;;;;;13.07;10.15;;;;;;;21.80;75.16;101390.44;6193247;23;20468;-61
2023/08/14 07:20:45;;;;;;;15.90;10.85;;;;;;;21.54;77.16;101389.06;6217735;23;20008;-61
2023/08/14 07:23:12;;;;;;;13.18;9.93;;;;;;;21.14;77.06;101396.28;6192013;23;20396;-61
2023/08/14 07:25:38;;;;;;;13.25;9.70;;;;;;;20.71;78.55;101400.00;6191213;23;20097;-61
2023/08/14 07:28:04;;;;;;;15.13;9.77;;;;;;;20.40;79.77;101395.13;6216772;23;20008;-61
2023/08/14 07:30:30;;;;;;;13.75;10.55;;;;;;;20.06;82.57;101378.84;6191975;23;20008;-61
2023/08/14 07:32:55;;;;;;;12.85;11.00;;;;;;;19.92;82.66;101381.25;6190848;22;20018;-61
2023/08/14 07:35:21;;;;;;;13.95;10.43;;;;;;;19.80;82.78;101387.09;6167457;23;20031;-62
2023/08/14 07:37:46;;;;;;;13.95;10.60;;;;;;;19.88;84.31;101390.28;6189284;23;20008;-61
2023/08/14 07:40:12;;;;;;;14.45;11.52;;;;;;;19.83;85.08;101401.13;6187695;23;20025;-61
2023/08/14 07:42:37;;;;;;;15.98;11.27;;;;;;;19.87;85.17;101402.72;6190448;23;20008;-61
2023/08/14 07:45:03;;;;;;;14.68;12.25;;;;;;;19.86;85.24;101416.94;6191768;23;20004;-61
2023/08/14 07:47:29;;;;;;;18.63;13.00;;;;;;;19.79;85.44;101415.47;6165923;23;20497;-62
2023/08/14 07:50:39;;;;;;;24.60;18.45;;;;;;;19.96;84.93;101422.75;6190162;23;20012;-61
2023/08/14 07:53:04;;;;;;;;;;;;;;;20.06;81.07;101415.25;6202081;22;20012;-61
2023/08/14 07:55:30;;;;;;;14.50;8.80;;;;;;;19.92;80.01;101407.00;6190713;23;19995;-61
2023/08/14 07:57:55;;;;;;;13.18;8.05;;;;;;;19.92;78.35;101405.19;6191553;23;20012;-61
2023/08/14 08:00:21;;;;;;;42.20;26.80;;;;;;;20.06;79.18;101413.44;6191564;23;20050;-61
2023/08/14 08:02:46;;;;;;;13.85;9.15;;;;;;;20.06;78.98;101410.78;6189634;22;20312;-62
2023/08/14 08:05:12;;;;;;;12.98;8.43;;;;;;;20.18;79.29;101408.53;6189763;23;20020;-61
2023/08/14 08:07:38;;;;;;;11.00;8.50;;;;;;;20.21;78.53;101416.38;6216081;23;20074;-61
2023/08/14 08:10:04;;;;;;;14.05;9.07;;;;;;;20.29;79.42;101416.91;6189849;23;20016;-61
2023/08/14 08:12:29;;;;;;;13.80;8.65;;;;;;;20.40;79.33;101413.78;6192593;23;20019;-61
2023/08/14 08:14:55;;;;;;;11.55;7.50;;;;;;;20.50;78.05;101412.47;6166366;23;20012;-62
2023/08/14 08:17:21;;;;;;;14.18;8.07;;;;;;;20.62;79.10;101419.03;6191247;23;20008;-61
2023/08/14 08:19:46;;;;;;;17.60;8.48;;;;;;;20.82;79.41;101419.97;6167161;23;20016;-61
2023/08/14 08:22:12;;;;;;;12.93;7.20;;;;;;;20.76;75.64;101413.97;6191466;23;20012;-61
2023/08/14 08:24:38;;;;;;;14.43;7.07;;;;;;;20.85;75.79;101415.34;6165247;23;20089;-61
2023/08/14 08:27:04;;;;;;;11.43;6.38;;;;;;;20.76;73.29;101413.13;6243421;23;20418;-61
2023/08/14 08:29:30;;;;;;;12.82;7.00;;;;;;;20.79;73.47;101404.09;6191870;23;20040;-61
2023/08/14 08:31:55;;;;;;;12.73;6.80;;;;;;;20.76;73.46;101398.00;6192093;23;20008;-58
2023/08/14 08:34:20;;;;;;;11.50;7.25;;;;;;;20.70;72.98;101394.72;6190086;23;20012;-58
2023/08/14 08:36:46;;;;;;;14.80;6.38;;;;;;;20.77;73.25;101389.06;6217275;23;20008;-58
2023/08/14 08:39:11;;;;;;;9.93;5.65;;;;;;;20.77;72.21;101391.75;6191984;23;20440;-58
2023/08/14 08:41:40;;;;;;;11.43;5.78;;;;;;;20.79;71.90;101391.66;6166572;23;20094;-58
2023/08/14 08:44:09;;;;;;;8.10;4.97;;;;;;;20.97;74.05;101392.59;6242868;22;20434;-58
2023/08/14 08:46:45;;;;;;;11.27;5.07;;;;;;;20.99;69.99;101397.84;6191434;23;20451;-58
2023/08/14 08:49:11;;;;;;;9.27;4.47;;;;;;;21.14;72.63;101388.28;6213560;23;20011;-58
2023/08/14 08:51:39;;;;;;;12.05;4.53;;;;;;;21.18;71.38;101387.22;6189241;23;20016;-58
2023/08/14 08:54:05;;;;;;;10.02;4.53;;;;;;;21.31;73.09;101377.69;6217089;23;20485;-61
2023/08/14 08:56:32;;;;;;;11.45;4.03;;;;;;;21.39;70.66;101383.50;6192722;23;20016;-61
2023/08/14 08:58:58;;;;;;;8.25;4.38;;;;;;;21.38;69.10;101384.44;6194721;23;20012;-61
2023/08/14 09:01:26;;;;;;;7.65;3.42;;;;;;;21.42;68.71;101386.03;6194123;23;20011;-61
2023/08/14 09:03:51;;;;;;;8.57;4.10;;;;;;;21.36;66.87;101378.31;6219912;23;20016;-61
2023/08/14 09:06:17;;;;;;;10.63;4.43;;;;;;;21.52;68.32;101374.94;6194559;23;20019;-61
2023/08/14 09:08:43;;;;;;;6.43;3.90;;;;;;;21.57;68.40;101373.75;6219850;23;20004;-61
2023/08/14 09:11:08;;;;;;;8.10;3.33;;;;;;;21.63;66.93;101373.44;6192426;23;20483;-62
2023/08/14 09:13:33;;;;;;;8.60;3.20;;;;;;;21.71;67.81;101375.75;6195365;23;20106;-61
2023/08/14 09:16:03;;;;;;;6.88;3.30;;;;;;;21.70;66.49;101363.34;6194023;23;20008;-61
2023/08/14 09:18:30;;;;;;;5.70;3.20;;;;;;;21.79;66.63;101367.34;6193446;23;20032;-58
2023/08/14 09:20:56;;;;;;;9.05;3.13;;;;;;;21.91;67.10;101373.84;6194085;23;20438;-58
2023/08/14 09:23:22;;;;;;;7.88;3.38;;;;;;;21.98;66.91;101362.81;6220389;23;20015;-58
2023/08/14 09:25:50;;;;;;;8.63;3.78;;;;;;;22.01;65.88;101360.91;6193599;23;20012;-61
2023/08/14 09:28:17;;;;;;;7.63;2.30;;;;;;;22.04;65.06;101366.09;6217487;23;20084;-61
2023/08/14 09:30:43;;;;;;;6.07;2.75;;;;;;;21.98;63.89;101361.97;6192639;23;20094;-61
2023/08/14 09:33:11;;;;;;;8.75;2.75;;;;;;;22.04;64.84;101366.97;6192136;22;20038;-63
2023/08/14 09:35:38;;;;;;;7.45;2.90;;;;;;;22.13;65.13;101366.47;6217416;23;20004;-61
2023/08/14 09:38:04;;;;;;;7.20;2.47;;;;;;;22.20;64.52;101371.53;6218289;23;20000;-61
2023/08/14 09:40:31;;;;;;;6.10;1.90;;;;;;;22.41;66.02;101375.75;6192181;23;20020;-61
2023/08/14 09:42:56;;;;;;;11.93;6.38;;;;;;;22.54;65.56;101396.44;6193130;22;20008;-61
2023/08/14 09:45:23;;;;;;;12.43;5.80;;;;;;;22.64;64.67;101393.22;6193771;23;20015;-61
2023/08/14 09:47:50;;;;;;;7.85;3.35;;;;;;;22.75;62.93;101395.28;6215544;23;20015;-59
2023/08/14 09:50:16;;;;;;;6.70;2.70;;;;;;;22.76;64.06;101397.03;6191515;23;20016;-60
2023/08/14 09:52:45;;;;;;;5.68;2.22;;;;;;;22.93;64.74;101387.22;6168316;23;20024;-62
2023/08/14 09:55:11;;;;;;;7.72;3.45;;;;;;;22.92;61.42;101390.84;6192795;23;20020;-60
2023/08/14 09:57:37;;;;;;;8.23;2.42;;;;;;;22.97;63.90;101388.78;6190610;23;20020;-61
2023/08/14 10:00:04;;;;;;;4.93;2.10;;;;;;;23.13;64.06;101379.00;6188109;23;20106;-61
2023/08/14 10:02:32;;;;;;;4.05;1.40;;;;;;;23.15;61.09;101377.09;6216454;23;20016;-61
2023/08/14 10:05:03;;;;;;;5.60;1.95;;;;;;;23.27;61.92;101374.66;6188782;23;20016;-62
2023/08/14 10:07:30;;;;;;;5.70;2.83;;;;;;;23.33;62.08;101363.63;6215193;23;20008;-63
2023/08/14 10:09:57;;;;;;;6.35;1.83;;;;;;;23.42;59.66;101368.44;6212739;23;20099;-70
2023/08/14 10:12:28;;;;;;;6.32;2.00;;;;;;;23.38;59.17;101361.56;6190593;23;20122;-62
2023/08/14 10:15:08;;;;;;;4.35;1.60;;;;;;;23.40;58.29;101358.78;6215404;23;20019;-62
2023/08/14 10:17:58;;;;;;;5.43;1.98;;;;;;;23.39;59.65;101344.56;6216508;23;19996;-60
2023/08/14 10:20:27;;;;;;;4.95;1.95;;;;;;;23.36;59.35;101347.41;6240182;23;20453;-59
2023/08/14 10:22:53;;;;;;;5.40;1.65;;;;;;;23.44;56.40;101328.25;6214522;22;20008;-60
2023/08/14 10:25:22;;;;;;;6.45;1.73;;;;;;;23.64;59.39;101319.03;6190470;23;20012;-61
2023/08/14 10:27:50;;;;;;;6.70;1.70;;;;;;;23.64;57.29;101319.03;6190665;23;20012;-61
2023/08/14 10:30:17;;;;;;;8.25;1.52;;;;;;;23.68;56.76;101321.44;6190175;23;20378;-61
2023/08/14 10:32:45;;;;;;;4.03;1.60;;;;;;;23.58;53.75;101316.75;6189619;23;20019;-59
2023/08/14 10:35:11;;;;;;;4.07;1.58;;;;;;;23.43;54.14;101306.00;6159636;23;20072;-58
2023/08/14 10:37:44;;;;;;;3.30;1.70;;;;;;;23.44;55.93;101306.84;6189167;23;20015;-58
2023/08/14 10:40:23;;;;;;;7.15;2.30;;;;;;;23.53;56.11;101301.81;6190789;23;20012;-58
2023/08/14 10:42:55;;;;;;;5.50;1.77;;;;;;;23.54;54.84;101294.66;6191352;22;20457;-58
2023/08/14 10:45:26;;;;;;;10.02;4.47;;;;;;;23.60;54.50;101296.09;6217227;23;20023;-60
2023/08/14 10:47:53;;;;;;;4.45;1.95;;;;;;;23.67;54.51;101292.09;6241375;23;20008;-57
2023/08/14 10:50:24;;;;;;;4.63;1.60;;;;;;;23.55;51.36;101298.19;6215064;23;20334;-57
2023/08/14 10:52:54;;;;;;;6.75;1.77;;;;;;;23.58;54.52;101290.00;6190519;22;20012;-57
2023/08/14 10:55:42;;;;;;;5.53;1.88;;;;;;;23.60;54.33;101301.44;6153096;23;1182992;-57
2023/08/14 10:58:30;;;;;;;6.05;1.90;;;;;;;23.66;55.42;101306.44;6207554;23;20081;-57
2023/08/14 11:00:56;;;;;;;5.85;1.85;;;;;;;23.62;55.71;101299.53;6216996;23;20016;-58
2023/08/14 11:03:22;;;;;;;5.57;1.90;;;;;;;23.63;54.73;101317.31;6165798;23;20014;-58
2023/08/14 11:05:49;;;;;;;5.68;1.92;;;;;;;23.73;54.43;101298.91;6217137;23;20012;-59
2023/08/14 11:08:16;;;;;;;6.13;2.72;;;;;;;23.78;55.73;101297.69;6167871;23;20095;-58
2023/08/14 11:10:42;;;;;;;4.20;1.70;;;;;;;23.77;53.96;101303.97;6217109;23;20016;-57